createdAt,value
2019-03-26T00:01:44.102Z,3.00
2019-03-26T00:04:14.481Z,2.85
2019-03-26T00:06:44.848Z,3.10
2019-03-26T00:09:14.210Z,3.45
2019-03-26T00:11:43.552Z,3.08
2019-03-26T00:14:13.015Z,2.33
2019-03-26T00:16:42.404Z,3.33
2019-03-26T00:19:11.743Z,2.70
2019-03-26T00:21:41.066Z,2.72
2019-03-26T00:24:10.419Z,3.22
2019-03-26T00:26:39.725Z,3.30
2019-03-26T00:29:09.327Z,2.60
2019-03-26T00:31:38.670Z,2.30
2019-03-26T00:34:18.786Z,2.75
2019-03-26T00:39:07.703Z,2.62
2019-03-26T00:41:37.304Z,2.58
2019-03-26T00:44:06.641Z,2.87
2019-03-26T00:46:36.001Z,2.08
2019-03-26T00:49:05.460Z,2.50
2019-03-26T00:51:35.593Z,3.17
2019-03-26T00:54:05.649Z,2.52
2019-03-26T00:56:35.898Z,2.40
2019-03-26T00:59:06.007Z,3.00
2019-03-26T01:01:36.398Z,2.47
2019-03-26T01:04:06.359Z,2.77
2019-03-26T01:06:36.467Z,2.37
2019-03-26T01:09:06.936Z,2.52
2019-03-26T01:11:37.461Z,2.83
2019-03-26T01:14:07.177Z,2.36
2019-03-26T01:16:37.264Z,2.52
2019-03-26T01:19:07.304Z,3.00
2019-03-26T01:21:37.644Z,2.20
2019-03-26T01:24:07.693Z,4.14
2019-03-26T01:26:37.971Z,2.87
2019-03-26T01:29:07.916Z,2.55
2019-03-26T01:31:38.149Z,3.72
2019-03-26T01:34:08.270Z,2.17
2019-03-26T01:36:38.472Z,3.14
2019-03-26T01:39:15.573Z,2.55
2019-03-26T01:41:45.012Z,2.58
2019-03-26T01:44:14.398Z,3.10
2019-03-26T01:46:43.752Z,2.92
2019-03-26T01:49:13.084Z,2.52
2019-03-26T01:51:42.393Z,3.92
2019-03-26T01:54:11.726Z,2.67
2019-03-26T01:56:41.060Z,3.27
2019-03-26T01:59:10.471Z,2.40
2019-03-26T02:01:40.077Z,2.17
2019-03-26T02:04:10.149Z,2.22
2019-03-26T02:06:40.259Z,1.98
2019-03-26T02:09:10.402Z,2.58
2019-03-26T02:11:40.654Z,2.72
2019-03-26T02:14:10.663Z,2.45
2019-03-26T02:16:40.899Z,2.70
2019-03-26T02:19:10.966Z,2.40
2019-03-26T02:21:41.336Z,2.40
2019-03-26T02:24:11.239Z,2.52
2019-03-26T02:26:41.505Z,3.87
2019-03-26T02:29:11.703Z,3.00
2019-03-26T02:31:41.907Z,2.30
2019-03-26T02:34:11.916Z,2.80
2019-03-26T02:36:42.225Z,2.62
2019-03-26T02:39:12.483Z,2.27
2019-03-26T02:41:42.501Z,3.52
2019-03-26T02:44:12.848Z,3.25
2019-03-26T02:46:42.750Z,2.65
2019-03-26T02:49:12.884Z,2.70
2019-03-26T02:51:43.308Z,2.87
2019-03-26T02:54:13.343Z,3.52
2019-03-26T02:56:43.419Z,2.25
2019-03-26T02:59:13.623Z,2.72
2019-03-26T03:01:43.687Z,2.80
2019-03-26T03:04:13.075Z,2.60
2019-03-26T03:06:42.406Z,2.30
2019-03-26T03:09:11.780Z,2.25
2019-03-26T03:11:41.166Z,2.83
2019-03-26T03:14:10.498Z,2.50
2019-03-26T03:16:39.811Z,2.20
2019-03-26T03:19:09.128Z,2.37
2019-03-26T03:21:38.428Z,2.70
2019-03-26T03:24:08.003Z,2.40
2019-03-26T03:26:37.321Z,2.60
2019-03-26T03:29:06.630Z,2.22
2019-03-26T03:31:35.953Z,2.47
2019-03-26T03:34:05.415Z,2.87
2019-03-26T03:36:34.739Z,2.00
2019-03-26T03:39:06.638Z,2.75
2019-03-26T03:41:36.000Z,2.50
2019-03-26T03:44:06.367Z,2.60
2019-03-26T03:46:35.939Z,2.65
2019-03-26T03:49:05.610Z,2.22
2019-03-26T03:51:36.467Z,2.83
2019-03-26T03:54:06.039Z,2.40
2019-03-26T03:56:37.388Z,2.80
2019-03-26T04:01:37.050Z,2.33
2019-03-26T04:04:06.368Z,3.08
2019-03-26T04:06:35.697Z,2.90
2019-03-26T04:09:05.853Z,2.33
2019-03-26T04:11:35.188Z,2.47
2019-03-26T04:14:04.549Z,2.33
2019-03-26T04:16:33.891Z,2.45
2019-03-26T04:19:03.259Z,2.27
2019-03-26T04:21:32.592Z,2.10
2019-03-26T04:24:01.911Z,2.15
2019-03-26T04:26:31.559Z,2.83
2019-03-26T04:29:00.862Z,2.70
2019-03-26T04:31:30.195Z,4.30
2019-03-26T04:33:59.520Z,2.87
2019-03-26T04:36:28.883Z,2.70
2019-03-26T04:38:58.281Z,2.25
2019-03-26T04:41:27.643Z,2.62
2019-03-26T04:43:58.034Z,1.97
2019-03-26T04:46:28.308Z,2.30
2019-03-26T04:48:58.581Z,2.50
2019-03-26T04:51:27.923Z,2.90
2019-03-26T04:53:57.282Z,2.92
2019-03-26T04:56:26.599Z,2.62
2019-03-26T04:58:56.018Z,2.70
2019-03-26T05:01:25.346Z,2.50
2019-03-26T05:03:54.766Z,2.50
2019-03-26T05:06:37.203Z,2.58
2019-03-26T05:08:55.304Z,2.80
2019-03-26T05:11:24.699Z,2.55
2019-03-26T05:13:54.064Z,3.05
2019-03-26T05:16:23.410Z,3.95
2019-03-26T05:18:52.740Z,2.62
2019-03-26T05:21:22.085Z,2.72
2019-03-26T05:23:52.169Z,3.08
2019-03-26T05:26:22.220Z,2.70
2019-03-26T05:28:54.208Z,2.95
2019-03-26T05:31:23.542Z,3.33
2019-03-26T05:33:52.876Z,2.92
2019-03-26T05:36:22.455Z,2.98
2019-03-26T05:38:52.393Z,3.12
2019-03-26T05:41:22.397Z,3.37
2019-03-26T05:43:52.588Z,2.98
2019-03-26T05:46:22.540Z,3.08
2019-03-26T05:48:52.589Z,3.75
2019-03-26T05:51:22.539Z,3.62
2019-03-26T05:53:52.601Z,3.30
2019-03-26T05:56:22.572Z,2.42
2019-03-26T05:58:53.019Z,2.87
2019-03-26T06:01:23.216Z,4.92
2019-03-26T06:03:52.786Z,3.67
2019-03-26T06:06:22.803Z,2.98
2019-03-26T06:08:54.802Z,2.45
2019-03-26T06:11:24.129Z,2.70
2019-03-26T06:13:53.456Z,2.52
2019-03-26T06:16:22.886Z,2.75
2019-03-26T06:18:53.069Z,2.77
2019-03-26T06:21:22.995Z,2.42
2019-03-26T06:23:53.908Z,2.72
2019-03-26T06:26:23.287Z,2.83
2019-03-26T06:28:53.097Z,3.30
2019-03-26T06:31:23.086Z,2.92
2019-03-26T06:33:53.174Z,3.67
2019-03-26T06:36:23.174Z,3.00
2019-03-26T06:38:53.170Z,2.70
2019-03-26T06:41:23.183Z,3.55
2019-03-26T06:43:53.232Z,3.27
2019-03-26T06:46:23.307Z,2.90
2019-03-26T06:48:53.335Z,2.75
2019-03-26T06:51:23.359Z,2.00
2019-03-26T06:53:53.358Z,3.05
2019-03-26T06:56:23.403Z,2.80
2019-03-26T06:58:53.420Z,2.42
2019-03-26T07:01:23.419Z,2.90
2019-03-26T07:03:53.437Z,2.92
2019-03-26T07:06:23.431Z,2.37
2019-03-26T07:08:53.481Z,2.98
2019-03-26T07:11:23.516Z,2.60
2019-03-26T07:13:53.638Z,3.08
2019-03-26T07:16:23.590Z,3.15
2019-03-26T07:18:53.830Z,2.90
2019-03-26T07:21:23.750Z,3.25
2019-03-26T07:23:53.740Z,3.08
2019-03-26T07:26:23.777Z,3.00
2019-03-26T07:28:56.645Z,3.62
2019-03-26T07:31:24.766Z,3.30
2019-03-26T07:33:54.091Z,3.17
2019-03-26T07:36:24.179Z,3.30
2019-03-26T07:38:53.906Z,3.33
2019-03-26T07:41:24.874Z,2.87
2019-03-26T07:43:54.330Z,3.17
2019-03-26T07:46:24.002Z,3.08
2019-03-26T07:48:54.089Z,2.92
2019-03-26T07:51:24.159Z,3.00
2019-03-26T07:53:54.192Z,2.72
2019-03-26T07:56:24.128Z,3.25
2019-03-26T07:58:54.174Z,3.58
2019-03-26T08:01:24.299Z,2.80
2019-03-26T08:03:54.225Z,3.70
2019-03-26T08:06:24.304Z,3.52
2019-03-26T08:08:55.707Z,3.20
2019-03-26T08:11:25.124Z,3.27
2019-03-26T08:13:54.537Z,3.80
2019-03-26T08:16:24.455Z,3.27
2019-03-26T08:18:54.490Z,3.37
2019-03-26T08:21:24.795Z,3.30
2019-03-26T08:23:54.566Z,3.25
2019-03-26T08:26:24.654Z,2.84
2019-03-26T08:28:54.687Z,2.98
2019-03-26T08:31:24.686Z,3.40
2019-03-26T08:33:54.656Z,2.80
2019-03-26T08:36:24.694Z,3.35
2019-03-26T08:38:54.745Z,2.80
2019-03-26T08:41:31.201Z,2.88
2019-03-26T08:43:58.797Z,2.67
2019-03-26T08:46:28.215Z,2.90
2019-03-26T08:48:57.579Z,3.85
2019-03-26T08:51:28.085Z,3.08
2019-03-26T08:53:57.433Z,3.50
2019-03-26T08:56:26.733Z,4.25
2019-03-26T08:58:56.096Z,2.83
2019-03-26T09:01:25.405Z,2.67
2019-03-26T09:03:55.033Z,1.60
2019-03-26T09:06:25.096Z,2.58
2019-03-26T09:08:55.049Z,2.52
2019-03-26T09:11:25.136Z,2.87
2019-03-26T09:13:55.142Z,2.47
2019-03-26T09:16:25.403Z,2.85
2019-03-26T09:18:56.653Z,2.67
2019-03-26T09:21:27.082Z,3.42
2019-03-26T09:23:56.572Z,2.80
2019-03-26T09:26:26.004Z,3.00
2019-03-26T09:28:55.349Z,2.72
2019-03-26T09:31:25.279Z,2.30
2019-03-26T09:33:55.450Z,3.22
2019-03-26T09:36:25.440Z,2.35
2019-03-26T09:38:55.444Z,2.70
2019-03-26T09:41:25.617Z,2.64
2019-03-26T09:43:55.480Z,2.87
2019-03-26T09:46:25.763Z,3.47
2019-03-26T09:48:55.547Z,3.10
2019-03-26T09:51:25.640Z,2.60
2019-03-26T09:53:55.688Z,2.90
2019-03-26T09:56:30.613Z,2.80
2019-03-26T09:58:56.720Z,3.02
2019-03-26T10:01:26.015Z,2.92
2019-03-26T10:03:55.826Z,2.50
2019-03-26T10:06:25.894Z,2.65
2019-03-26T10:09:04.940Z,2.20
2019-03-26T10:11:40.767Z,2.10
2019-03-26T10:14:20.554Z,2.50
2019-03-26T10:16:45.389Z,2.80
2019-03-26T10:19:16.996Z,3.40
2019-03-26T10:21:46.924Z,2.27
2019-03-26T10:24:20.101Z,2.62
2019-03-26T10:26:50.089Z,2.40
2019-03-26T10:29:30.021Z,2.00
2019-03-26T10:31:51.219Z,3.17
2019-03-26T10:34:20.636Z,2.30
2019-03-26T10:36:50.210Z,2.58
2019-03-26T10:39:19.793Z,2.67
2019-03-26T10:41:49.113Z,2.77
2019-03-26T10:44:18.433Z,2.10
2019-03-26T10:46:47.746Z,2.25
2019-03-26T10:49:17.078Z,2.40
2019-03-26T10:51:46.438Z,2.08
2019-03-26T10:54:15.810Z,2.08
2019-03-26T10:56:45.113Z,2.12
2019-03-26T10:59:14.521Z,2.25
2019-03-26T11:01:43.856Z,1.72
2019-03-26T11:04:13.218Z,2.02
2019-03-26T11:06:42.717Z,2.13
2019-03-26T11:09:21.388Z,2.27
2019-03-26T11:14:11.655Z,2.60
2019-03-26T11:16:40.980Z,2.45
2019-03-26T11:19:10.296Z,2.40
2019-03-26T11:21:39.604Z,2.60
2019-03-26T11:24:08.937Z,2.37
2019-03-26T11:26:38.302Z,2.25
2019-03-26T11:29:07.738Z,3.05
2019-03-26T11:31:37.069Z,3.00
2019-03-26T11:34:06.448Z,2.52
2019-03-26T11:36:35.918Z,2.62
2019-03-26T11:39:07.625Z,2.60
2019-03-26T11:41:37.065Z,2.70
2019-03-26T11:44:06.418Z,2.47
2019-03-26T11:46:35.963Z,2.80
2019-03-26T11:49:05.365Z,3.08
2019-03-26T11:51:34.726Z,2.70
2019-03-26T11:54:04.123Z,3.35
2019-03-26T11:56:33.483Z,2.52
2019-03-26T11:59:02.807Z,2.87
2019-03-26T12:01:32.163Z,2.70
2019-03-26T12:04:01.561Z,2.40
2019-03-26T12:06:30.966Z,2.80
2019-03-26T12:09:00.378Z,2.12
2019-03-26T12:11:30.365Z,2.27
2019-03-26T12:13:59.671Z,2.15
2019-03-26T12:16:29.043Z,2.40
2019-03-26T12:18:58.428Z,1.72
2019-03-26T12:21:28.042Z,1.90
2019-03-26T12:23:57.610Z,2.00
2019-03-26T12:26:27.739Z,2.83
2019-03-26T12:28:58.779Z,2.55
2019-03-26T12:31:29.493Z,2.70
2019-03-26T12:34:01.061Z,2.42
2019-03-26T12:36:39.801Z,2.87
2019-03-26T12:39:01.479Z,3.47
2019-03-26T12:44:00.860Z,2.15
2019-03-26T12:46:30.154Z,2.33
2019-03-26T12:49:00.473Z,2.40
2019-03-26T12:51:29.765Z,2.65
2019-03-26T12:53:59.126Z,3.80
2019-03-26T12:56:28.525Z,2.40
2019-03-26T12:58:59.107Z,2.15
2019-03-26T13:01:28.462Z,2.97
2019-03-26T13:04:11.702Z,1.90
2019-03-26T13:06:29.426Z,1.82
2019-03-26T13:09:04.721Z,2.50
2019-03-26T13:11:34.301Z,2.37
2019-03-26T13:14:04.838Z,2.20
2019-03-26T13:16:34.144Z,2.10
2019-03-26T13:19:03.494Z,2.70
2019-03-26T13:21:32.826Z,3.02
2019-03-26T13:24:02.167Z,2.60
2019-03-26T13:26:31.521Z,2.60
2019-03-26T13:29:00.850Z,3.17
2019-03-26T13:31:30.219Z,3.27
2019-03-26T13:33:59.551Z,3.25
2019-03-26T13:36:28.939Z,3.27
2019-03-26T13:39:00.041Z,4.12
2019-03-26T13:41:29.398Z,3.33
2019-03-26T13:43:58.797Z,3.67
2019-03-26T13:46:28.582Z,3.83
2019-03-26T13:48:58.635Z,3.33
2019-03-26T13:51:28.764Z,3.65
2019-03-26T13:53:58.770Z,3.33
2019-03-26T13:56:29.458Z,4.00
2019-03-26T13:58:58.794Z,3.80
2019-03-26T14:01:28.862Z,3.80
2019-03-26T14:03:58.878Z,3.65
2019-03-26T14:06:28.856Z,3.77
2019-03-26T14:08:58.907Z,4.08
2019-03-26T14:11:28.930Z,3.45
2019-03-26T14:13:58.940Z,3.37
2019-03-26T14:16:29.048Z,3.92
2019-03-26T14:18:59.111Z,3.27
2019-03-26T14:21:29.001Z,4.47
2019-03-26T14:23:58.943Z,3.30
2019-03-26T14:26:29.122Z,3.65
2019-03-26T14:28:59.165Z,4.28
2019-03-26T14:31:29.091Z,4.03
2019-03-26T14:33:59.100Z,4.10
2019-03-26T14:36:29.168Z,4.30
2019-03-26T14:39:01.317Z,4.45
2019-03-26T14:41:32.550Z,4.20
2019-03-26T14:44:01.907Z,3.27
2019-03-26T14:46:31.239Z,3.02
2019-03-26T14:49:01.630Z,2.90
2019-03-26T14:51:30.985Z,3.00
2019-03-26T14:54:00.297Z,3.98
2019-03-26T14:56:31.003Z,3.23
2019-03-26T14:59:00.358Z,2.92
2019-03-26T15:01:29.762Z,2.95
2019-03-26T15:03:59.423Z,3.62
2019-03-26T15:06:29.300Z,3.37
2019-03-26T15:08:59.402Z,3.33
2019-03-26T15:11:29.327Z,3.40
2019-03-26T15:13:59.483Z,3.02
2019-03-26T15:16:29.492Z,3.00
2019-03-26T15:19:00.417Z,3.50
2019-03-26T15:21:29.772Z,3.00
2019-03-26T15:24:00.120Z,2.90
2019-03-26T15:26:29.750Z,2.95
2019-03-26T15:28:59.460Z,4.67
2019-03-26T15:31:29.455Z,3.50
2019-03-26T15:33:59.501Z,2.95
2019-03-26T15:36:29.516Z,3.00
2019-03-26T15:38:59.522Z,2.92
2019-03-26T15:41:30.443Z,3.50
2019-03-26T15:43:59.987Z,2.43
2019-03-26T15:46:29.594Z,3.02
2019-03-26T15:49:03.297Z,2.83
2019-03-26T15:51:32.709Z,2.85
2019-03-26T15:54:02.071Z,3.15
2019-03-26T15:56:31.398Z,2.67
2019-03-26T15:59:00.726Z,2.63
2019-03-26T16:01:30.091Z,2.95
2019-03-26T16:03:59.674Z,2.55
2019-03-26T16:06:29.665Z,2.50
2019-03-26T16:08:59.778Z,2.98
2019-03-26T16:11:35.496Z,3.22
2019-03-26T16:14:00.989Z,2.52
2019-03-26T16:16:30.381Z,2.58
2019-03-26T16:19:00.811Z,2.55
2019-03-26T16:21:30.303Z,2.70
2019-03-26T16:23:59.765Z,2.77
2019-03-26T16:26:29.898Z,2.92
2019-03-26T16:29:00.227Z,2.37
2019-03-26T16:31:30.216Z,2.80
2019-03-26T16:34:00.480Z,2.50
2019-03-26T16:36:30.532Z,2.72
2019-03-26T16:39:00.753Z,2.92
2019-03-26T16:41:31.733Z,2.87
2019-03-26T16:44:01.071Z,2.30
2019-03-26T16:46:31.150Z,3.25
2019-03-26T16:49:01.646Z,2.70
2019-03-26T16:51:31.569Z,2.15
2019-03-26T16:54:01.665Z,2.60
2019-03-26T16:56:31.973Z,2.93
2019-03-26T16:59:02.083Z,2.90
2019-03-26T17:01:32.152Z,3.27
2019-03-26T17:04:02.414Z,2.83
2019-03-26T17:06:32.717Z,3.10
2019-03-26T17:09:03.806Z,2.95
2019-03-26T17:11:33.529Z,3.55
2019-03-26T17:14:03.267Z,3.94
2019-03-26T17:16:33.354Z,2.98
2019-03-26T17:19:03.599Z,3.33
2019-03-26T17:21:33.723Z,3.60
2019-03-26T17:24:03.959Z,3.06
2019-03-26T17:26:34.220Z,3.62
2019-03-26T17:29:04.452Z,3.47
2019-03-26T17:31:34.567Z,3.02
2019-03-26T17:34:04.848Z,3.50
2019-03-26T17:36:35.228Z,3.33
2019-03-26T17:39:07.472Z,3.20
2019-03-26T17:41:36.792Z,3.20
2019-03-26T17:44:06.168Z,3.52
2019-03-26T17:46:35.483Z,3.40
2019-03-26T17:49:05.651Z,3.05
2019-03-26T17:51:35.801Z,3.04
2019-03-26T17:54:06.060Z,3.40
2019-03-26T17:56:36.058Z,3.47
2019-03-26T17:59:06.330Z,3.50
2019-03-26T18:01:36.496Z,3.27
2019-03-26T18:04:06.613Z,3.00
2019-03-26T18:06:36.755Z,3.02
2019-03-26T18:09:07.042Z,4.62
2019-03-26T18:11:36.969Z,3.40
2019-03-26T18:14:07.182Z,3.90
2019-03-26T18:16:37.312Z,3.70
2019-03-26T18:19:07.570Z,3.60
2019-03-26T18:21:50.564Z,4.60
2019-03-26T18:24:08.653Z,3.30
2019-03-26T18:26:37.943Z,3.80
2019-03-26T18:29:08.153Z,3.70
2019-03-26T18:31:38.111Z,3.25
2019-03-26T18:34:08.522Z,3.40
2019-03-26T18:36:38.478Z,3.47
2019-03-26T18:39:08.900Z,4.10
2019-03-26T18:41:38.919Z,3.68
2019-03-26T18:44:08.928Z,3.80
2019-03-26T18:46:39.158Z,3.45
2019-03-26T18:49:09.328Z,4.00
2019-03-26T18:51:39.373Z,3.50
2019-03-26T18:54:10.040Z,3.42
2019-03-26T18:56:39.665Z,3.30
2019-03-26T18:59:09.907Z,3.70
2019-03-26T19:01:40.074Z,3.92
2019-03-26T19:04:10.308Z,3.58
2019-03-26T19:06:40.321Z,3.85
2019-03-26T19:09:10.554Z,4.55
2019-03-26T19:11:40.634Z,5.87
2019-03-26T19:14:10.885Z,4.58
2019-03-26T19:16:40.926Z,5.42
2019-03-26T19:19:16.378Z,3.85
2019-03-26T19:21:45.755Z,4.58
2019-03-26T19:24:15.192Z,4.17
2019-03-26T19:26:44.689Z,3.85
2019-03-26T19:29:14.072Z,3.70
2019-03-26T19:31:43.490Z,4.53
2019-03-26T19:34:12.975Z,4.65
2019-03-26T19:36:42.391Z,3.95
2019-03-26T19:39:11.814Z,3.42
2019-03-26T19:41:41.559Z,4.55
2019-03-26T19:44:11.624Z,4.60
2019-03-26T19:46:41.531Z,3.30
2019-03-26T19:49:12.623Z,3.52
2019-03-26T19:51:42.044Z,3.87
2019-03-26T19:54:11.640Z,4.08
2019-03-26T19:56:41.662Z,4.08
2019-03-26T19:59:19.790Z,4.28
2019-03-26T20:01:49.410Z,4.05
2019-03-26T20:04:18.993Z,4.13
2019-03-26T20:06:48.336Z,4.28
2019-03-26T20:09:18.736Z,4.28
2019-03-26T20:11:48.174Z,4.03
2019-03-26T20:14:17.568Z,4.67
2019-03-26T20:16:46.942Z,4.72
2019-03-26T20:19:16.295Z,5.60
2019-03-26T20:21:45.741Z,6.17
2019-03-26T20:24:15.080Z,5.10
2019-03-26T20:26:44.427Z,4.50
2019-03-26T20:29:20.616Z,4.70
2019-03-26T20:31:51.205Z,4.83
2019-03-26T20:34:20.546Z,5.60
2019-03-26T20:36:49.924Z,4.85
2019-03-26T20:39:25.742Z,5.00
2019-03-26T20:41:56.183Z,4.72
2019-03-26T20:44:25.489Z,4.45
2019-03-26T20:46:54.807Z,4.78
2019-03-26T20:49:24.212Z,4.92
2019-03-26T20:51:53.669Z,4.67
2019-03-26T20:54:23.093Z,3.87
2019-03-26T20:56:52.763Z,5.00
2019-03-26T20:59:22.383Z,4.33
2019-03-26T21:01:51.790Z,5.33
2019-03-26T21:04:21.444Z,5.40
2019-03-26T21:06:50.873Z,4.87
2019-03-26T21:09:20.239Z,5.77
2019-03-26T21:11:49.719Z,5.20
2019-03-26T21:14:19.079Z,5.28
2019-03-26T21:16:48.513Z,5.58
2019-03-26T21:19:17.864Z,5.47
2019-03-26T21:21:47.184Z,6.25
2019-03-26T21:24:16.599Z,6.05
2019-03-26T21:26:46.064Z,6.55
2019-03-26T21:29:15.479Z,6.70
2019-03-26T21:31:45.105Z,6.28
2019-03-26T21:34:14.477Z,6.00
2019-03-26T21:36:43.903Z,6.92
2019-03-26T21:39:13.274Z,6.33
2019-03-26T21:41:43.011Z,6.60
2019-03-26T21:44:12.664Z,6.42
2019-03-26T21:46:42.021Z,6.83
2019-03-26T21:49:11.357Z,7.12
2019-03-26T21:51:40.694Z,7.22
2019-03-26T21:54:10.021Z,8.08
2019-03-26T21:56:39.413Z,7.20
2019-03-26T21:59:08.871Z,7.20
2019-03-26T22:01:38.204Z,7.25
2019-03-26T22:04:07.571Z,6.67
2019-03-26T22:06:36.954Z,7.58
2019-03-26T22:09:07.847Z,9.13
2019-03-26T22:11:49.298Z,7.90
2019-03-26T22:14:17.994Z,7.83
2019-03-26T22:16:39.668Z,9.28
2019-03-26T22:19:08.986Z,6.87
2019-03-26T22:21:38.318Z,7.35
2019-03-26T22:24:07.638Z,7.33
2019-03-26T22:26:37.000Z,9.43
2019-03-26T22:29:06.803Z,8.45
2019-03-26T22:31:36.148Z,8.90
2019-03-26T22:34:05.488Z,8.23
2019-03-26T22:36:34.925Z,8.05
2019-03-26T22:39:05.882Z,7.92
2019-03-26T22:41:35.322Z,8.33
2019-03-26T22:44:04.831Z,7.92
2019-03-26T22:46:34.142Z,9.23
2019-03-26T22:49:03.542Z,8.20
2019-03-26T22:51:32.855Z,9.58
2019-03-26T22:54:02.184Z,8.25
2019-03-26T22:56:31.566Z,9.63
2019-03-26T22:59:01.976Z,7.60
2019-03-26T23:01:31.451Z,8.90
2019-03-26T23:04:00.898Z,8.68
2019-03-26T23:06:30.376Z,9.43
2019-03-26T23:08:59.761Z,9.50
2019-03-26T23:11:30.754Z,8.13
2019-03-26T23:14:00.095Z,8.70
2019-03-26T23:16:30.079Z,8.23
2019-03-26T23:18:59.453Z,7.83
2019-03-26T23:21:28.891Z,8.73
2019-03-26T23:23:58.219Z,9.78
2019-03-26T23:26:27.615Z,9.33
2019-03-26T23:28:57.021Z,10.10
2019-03-26T23:31:26.362Z,8.18
2019-03-26T23:33:55.823Z,8.93
2019-03-26T23:36:25.176Z,9.50
2019-03-26T23:38:54.576Z,9.88
2019-03-26T23:41:23.964Z,9.28
2019-03-26T23:43:53.415Z,8.85
2019-03-26T23:46:22.766Z,11.20
2019-03-26T23:48:52.088Z,9.35
2019-03-26T23:51:21.398Z,10.70
2019-03-26T23:53:50.719Z,9.80
2019-03-26T23:56:20.057Z,9.90
2019-03-26T23:58:49.445Z,9.60
